Etusivu
METAR-TAF:

METAR-TAF

Lentoasemat :

Banjulin kansainvälinen lentoasema

Banjul, Gambia

Leveyspiiri: 13-21N, Pituuspiiri: 016-48W, korkeus merenpinnasta: 36 m

Tämänhetkinen sää

Tämä raportti tehtiin 22 minuuttia sitten, kello 21.00 UTC
Tuuli 4 kn etelästä/kaakosta
Lämpötila 28°C
Kosteus 84%
Ilmanpaine 1013 hPa
Näkyvyys 10 km tai enemmän

METAR: GBYD 222100Z 16004KT 9999 28/25 Q1013

Aika: 21:22 (21:22 UTC)

Sääennuste

Tämä raportti tehtiin 4 tuntia ja 22 minuuttia sitten, kello 17.00 UTC
Ennuste voimassa 22. päivästä klo 18 UTC - 23. päivään klo 24 UTC
Tuuli 8 kn etelästä/lounaasta
Näkyvyys 10 km tai enemmän
Hajanaisia pilviä 1200 ft:n korkeudessa

TAF: GBYD 221700Z 2218/2324 20008KT 9999 SCT012

Säähavainnot ja -ennusteet yli 4000 lentoasemalta (METAR- ja TAF-raportit).

Käytössä olevat sääasemat on merkitty karttaan keltaisilla ja punaisilla pisteillä.

Aseta hiiri pisteen päälle nähdäksesi sääaseman nimen.

Klikkaa sitten nähdäksesi säähavainnot ja -ennusteet.

Kartan vaihtaminen: klikkaa mustalla rastilla varustettuja vihreitä pisteitä, niin voit zoomata sisään; viivalla varustettua vihreää pistettä, niin voit zoomata ulos tai vihreitä nuolia, niin pääset viereisille kartoille.


METAR-TAF: